Time;durP1;ratioP1;P1;durP2;ratioP2;P2;SDS_P1;SDS_P2;PMS_P1;PMS_P2;Temp;Humidity;BMP_temperature;BMP_pressure;BME280_temperature;BME280_humidity;BME280_pressure;Samples;Min_cycle;Max_cycle;Signal;HPM_P1;HPM_P2
2022/01/12 00:00:09;;;;;;;3.92;1.70;;;;;;;16.13;60.56;99359.63;3119993;28;20044;-70
2022/01/12 00:01:42;;;;;;;3.83;1.70;;;;;;;16.11;60.47;99350.94;3114996;28;20046;-69
2022/01/12 00:03:13;;;;;;;2.03;1.65;;;;;;;16.11;60.47;99353.63;3108070;28;20120;-69
2022/01/12 00:04:45;;;;;;;3.28;2.17;;;;;;;16.09;60.42;99369.00;3114495;28;20710;-70
2022/01/12 00:06:17;;;;;;;2.42;1.42;;;;;;;16.08;60.46;99361.97;3121004;28;20785;-70
2022/01/12 00:07:50;;;;;;;2.22;1.23;;;;;;;16.06;60.63;99359.47;3118012;28;20053;-69
2022/01/12 00:09:23;;;;;;;2.28;1.98;;;;;;;16.03;60.49;99342.91;3116415;28;20049;-70
2022/01/12 00:10:56;;;;;;;2.47;1.90;;;;;;;16.03;60.63;99346.44;3117688;28;20645;-69
2022/01/12 00:12:28;;;;;;;2.28;1.70;;;;;;;16.01;60.55;99348.44;3119454;28;20627;-70
2022/01/12 00:14:00;;;;;;;4.90;2.22;;;;;;;16.00;60.51;99353.97;3119553;28;20106;-70
2022/01/12 00:15:31;;;;;;;3.15;2.10;;;;;;;15.98;60.45;99342.59;3119223;28;20063;-70
2022/01/12 00:17:03;;;;;;;3.83;1.70;;;;;;;15.98;60.53;99350.63;3120119;28;20052;-70
2022/01/12 00:18:35;;;;;;;2.97;2.20;;;;;;;15.96;60.57;99341.91;3118916;28;20099;-69
2022/01/12 00:20:06;;;;;;;2.13;1.90;;;;;;;15.95;60.74;99345.59;3109192;28;20049;-70
2022/01/12 00:21:38;;;;;;;1.90;1.63;;;;;;;15.92;60.87;99348.63;3118225;28;20060;-69
2022/01/12 00:23:09;;;;;;;1.85;1.50;;;;;;;15.93;60.68;99342.25;3122663;28;20593;-70
2022/01/12 00:25:05;;;;;;;2.33;1.90;;;;;;;15.89;60.65;99347.13;3120175;28;20056;-70
2022/01/12 00:33:07;;;;;;;3.75;1.40;;;;;;;15.86;60.73;99353.63;3116437;28;20147;-70
2022/01/12 00:34:14;;;;;;;2.67;1.80;;;;;;;15.80;60.86;99350.81;3092069;28;20045;-70
2022/01/12 00:35:47;;;;;;;3.08;2.03;;;;;;;15.77;60.96;99349.31;3093834;28;20052;-70
2022/01/12 00:37:19;;;;;;;2.80;2.00;;;;;;;15.75;61.02;99356.66;3113736;28;20174;-70
2022/01/12 00:38:49;;;;;;;1.67;1.42;;;;;;;15.72;60.86;99359.66;3115702;28;20054;-70
2022/01/12 00:40:23;;;;;;;1.55;1.27;;;;;;;15.71;61.06;99360.69;3119455;28;20091;-70
2022/01/12 00:41:54;;;;;;;2.72;1.83;;;;;;;15.69;61.11;99368.03;3120374;28;20061;-70
2022/01/12 00:43:30;;;;;;;3.45;1.45;;;;;;;15.68;60.88;99357.44;3121725;28;20045;-70
2022/01/12 00:45:04;;;;;;;5.68;2.20;;;;;;;15.67;60.86;99353.94;3124528;28;20565;-70
2022/01/12 00:46:37;;;;;;;2.47;1.77;;;;;;;15.66;60.90;99360.31;3117852;28;20144;-70
2022/01/12 00:48:09;;;;;;;3.55;1.67;;;;;;;15.63;60.88;99374.00;3117981;28;20041;-70
2022/01/12 00:49:41;;;;;;;2.20;1.60;;;;;;;15.60;60.89;99372.50;3121379;28;20166;-70
2022/01/12 00:51:12;;;;;;;3.53;1.83;;;;;;;15.59;61.08;99372.66;3120833;28;20048;-70
2022/01/12 00:52:43;;;;;;;2.38;1.40;;;;;;;15.59;60.97;99383.34;3117858;28;20045;-70
2022/01/12 00:54:15;;;;;;;2.85;1.58;;;;;;;15.57;61.26;99385.34;3119724;28;20041;-70
2022/01/12 00:55:49;;;;;;;2.28;1.30;;;;;;;15.56;61.13;99381.00;3108901;28;20320;-70
2022/01/12 00:57:20;;;;;;;2.10;1.65;;;;;;;15.54;61.28;99372.31;3121381;28;20053;-70
2022/01/12 00:58:53;;;;;;;2.13;1.42;;;;;;;15.53;61.15;99378.66;3123346;28;20056;-70
2022/01/12 01:00:25;;;;;;;4.32;1.88;;;;;;;15.51;61.20;99383.34;3119482;28;20049;-69
2022/01/12 01:01:57;;;;;;;2.72;1.67;;;;;;;15.49;61.03;99382.66;3119394;28;20076;-69
2022/01/12 01:03:30;;;;;;;3.45;1.38;;;;;;;15.48;61.10;99375.66;3115056;28;20085;-70
2022/01/12 01:05:02;;;;;;;5.15;1.83;;;;;;;15.47;61.26;99400.72;3120267;28;20060;-69
2022/01/12 01:06:35;;;;;;;3.13;1.67;;;;;;;15.44;61.20;99391.19;3124221;28;20045;-69
2022/01/12 01:08:07;;;;;;;2.75;1.80;;;;;;;15.41;61.33;99408.41;3123975;28;20037;-69
2022/01/12 01:09:44;;;;;;;2.05;1.38;;;;;;;15.41;61.27;99396.88;3123367;28;20064;-69
2022/01/12 01:11:18;;;;;;;2.10;1.60;;;;;;;15.40;61.23;99425.41;3122037;28;20049;-69
2022/01/12 01:12:49;;;;;;;1.30;1.13;;;;;;;15.39;61.31;99398.88;3120668;28;20509;-70
2022/01/12 01:14:33;;;;;;;2.85;1.60;;;;;;;15.36;61.39;99405.38;3120118;28;20049;-70
2022/01/12 01:16:13;;;;;;;3.83;1.55;;;;;;;15.36;61.40;99410.72;3120854;28;20536;-70
2022/01/12 01:26:53;;;;;;;3.63;1.98;;;;;;;15.27;61.55;99411.72;3119225;28;20045;-70
2022/01/12 01:28:24;;;;;;;2.22;1.60;;;;;;;15.26;61.41;99422.53;3116082;28;20048;-70
2022/01/12 01:29:56;;;;;;;1.70;1.50;;;;;;;15.23;61.33;99410.34;3119322;28;20417;-70
2022/01/12 01:31:31;;;;;;;2.67;1.52;;;;;;;15.25;61.40;99412.88;3118320;28;20087;-70
2022/01/12 01:33:06;;;;;;;2.20;1.13;;;;;;;15.22;61.41;99400.66;3117254;28;20417;-70
2022/01/12 01:34:44;;;;;;;2.83;1.50;;;;;;;15.19;61.51;99409.00;3120853;28;20053;-70
2022/01/12 01:36:16;;;;;;;3.53;1.75;;;;;;;15.16;61.66;99407.50;3118860;28;20053;-71
2022/01/12 01:37:48;;;;;;;3.33;2.00;;;;;;;15.16;61.35;99377.28;3118175;28;20053;-70
2022/01/12 01:39:21;;;;;;;1.73;1.30;;;;;;;15.15;61.41;99381.75;3119244;28;20045;-70
2022/01/12 01:40:53;;;;;;;2.20;1.35;;;;;;;15.12;61.45;99381.25;3114774;28;20045;-70
2022/01/12 01:42:39;;;;;;;1.73;1.15;;;;;;;15.13;61.43;99388.28;3119284;28;20045;-70
2022/01/12 01:53:16;;;;;;;1.20;1.02;;;;;;;15.11;61.60;99374.25;3117590;28;20071;-70
2022/01/12 01:53:41;;;;;;;2.45;1.48;;;;;;;15.01;61.61;99373.53;3120977;28;20041;-70
2022/01/12 01:55:14;;;;;;;1.83;1.40;;;;;;;15.00;61.65;99374.53;3120459;28;20041;-70
2022/01/12 01:56:46;;;;;;;2.45;1.65;;;;;;;14.98;61.41;99372.84;3122565;28;20049;-69
2022/01/12 01:58:19;;;;;;;2.25;1.38;;;;;;;14.97;61.78;99362.34;3121012;28;20052;-70
2022/01/12 01:59:51;;;;;;;2.25;1.48;;;;;;;14.96;61.77;99368.69;3116323;28;20056;-70
2022/01/12 02:01:23;;;;;;;1.70;1.17;;;;;;;14.95;61.65;99369.69;3120914;28;20110;-69
2022/01/12 02:02:57;;;;;;;2.75;1.90;;;;;;;14.94;61.55;99373.38;3118816;28;20099;-70
2022/01/12 02:04:29;;;;;;;1.75;1.35;;;;;;;14.93;61.74;99372.53;3122576;28;20139;-70
2022/01/12 02:06:04;;;;;;;2.28;1.58;;;;;;;14.92;61.53;99376.19;3120766;28;20048;-70
2022/01/12 02:07:36;;;;;;;1.60;0.95;;;;;;;14.91;61.66;99379.84;3117636;28;20744;-70
2022/01/12 02:09:08;;;;;;;1.42;1.27;;;;;;;14.91;61.76;99377.19;3117026;28;20071;-70
2022/01/12 02:10:40;;;;;;;1.55;1.30;;;;;;;14.89;61.52;99381.00;3119455;28;20045;-70
2022/01/12 02:12:13;;;;;;;2.58;1.80;;;;;;;14.90;61.66;99388.03;3111643;28;20041;-70
2022/01/12 02:13:46;;;;;;;2.03;1.48;;;;;;;14.85;61.85;99385.84;3118005;28;20107;-70
2022/01/12 02:15:22;;;;;;;2.25;1.35;;;;;;;14.85;61.85;99379.66;3117157;28;20048;-69
2022/01/12 02:16:58;;;;;;;2.40;1.30;;;;;;;14.82;61.83;99386.19;3118568;28;20038;-70
2022/01/12 02:18:42;;;;;;;2.28;1.42;;;;;;;14.82;61.67;99380.84;3120619;28;20042;-70
2022/01/12 02:20:30;;;;;;;1.65;1.55;;;;;;;14.81;61.71;99389.81;3115968;28;20041;-70
2022/01/12 02:37:00;;;;;;;1.00;0.90;;;;;;;14.82;61.78;99410.22;3109622;28;20049;-69
2022/01/12 02:40:22;;;;;;;2.85;1.52;;;;;;;14.82;61.78;99399.53;3108726;28;20148;-70
2022/01/12 02:41:54;;;;;;;1.20;1.10;;;;;;;14.81;61.82;99402.34;3118783;28;20055;-70
2022/01/12 02:43:39;;;;;;;2.83;1.48;;;;;;;14.80;61.71;99400.69;3120526;28;20762;-69
2022/01/12 02:50:53;;;;;;;2.03;1.23;;;;;;;14.76;61.78;99402.81;3083077;28;20066;-69
2022/01/12 02:54:15;;;;;;;2.13;1.27;;;;;;;14.76;61.75;99410.81;3118680;28;20056;-70
2022/01/12 02:55:47;;;;;;;1.88;1.55;;;;;;;14.76;61.72;99424.19;3115386;28;20617;-70
2022/01/12 02:57:19;;;;;;;2.67;1.60;;;;;;;14.77;61.93;99425.03;3111717;28;20592;-71
2022/01/12 02:58:52;;;;;;;1.40;1.20;;;;;;;14.75;61.77;99419.84;3115711;28;20045;-70
2022/01/12 03:00:33;;;;;;;1.40;1.20;;;;;;;14.74;61.74;99418.19;3120080;28;20041;-69
2022/01/12 03:02:20;;;;;;;1.80;1.55;;;;;;;14.72;61.83;99413.00;3118341;28;20049;-70
2022/01/12 03:03:53;;;;;;;2.88;1.35;;;;;;;14.73;61.79;99421.84;3117886;28;20124;-70
2022/01/12 03:05:35;;;;;;;1.65;1.05;;;;;;;14.70;61.80;99412.31;3115668;28;20124;-70
2022/01/12 03:07:15;;;;;;;1.55;1.17;;;;;;;14.70;61.80;99422.16;3114645;28;20094;-69
2022/01/12 03:08:48;;;;;;;2.70;1.65;;;;;;;14.68;61.75;99417.00;3118652;28;20537;-69
2022/01/12 03:10:22;;;;;;;1.45;0.98;;;;;;;14.70;61.83;99422.16;3118964;28;20118;-70
2022/01/12 03:11:53;;;;;;;1.35;0.88;;;;;;;14.68;61.73;99410.78;3119810;28;20610;-70
2022/01/12 03:13:24;;;;;;;3.05;1.52;;;;;;;14.68;61.81;99418.78;3116843;28;20045;-69
2022/01/12 03:14:56;;;;;;;1.97;1.37;;;;;;;14.66;62.03;99413.63;3115798;28;20052;-70
2022/01/12 03:16:29;;;;;;;3.85;1.70;;;;;;;14.66;61.66;99410.97;3116236;28;20306;-70
2022/01/12 03:18:01;;;;;;;1.98;1.00;;;;;;;14.65;61.75;99397.75;3118818;28;20049;-69
2022/01/12 03:19:33;;;;;;;1.50;1.00;;;;;;;14.65;61.77;99395.09;3115974;28;20079;-69
2022/01/12 03:21:05;;;;;;;1.65;1.05;;;;;;;14.63;61.77;99389.09;3120204;28;20048;-69
2022/01/12 03:22:38;;;;;;;3.15;1.45;;;;;;;14.64;61.77;99390.75;3118876;28;20049;-69
2022/01/12 03:24:09;;;;;;;2.15;1.73;;;;;;;14.63;61.80;99381.09;3116542;28;20056;-69
2022/01/12 03:25:43;;;;;;;2.85;1.38;;;;;;;14.62;61.96;99379.38;3114167;28;20057;-70
2022/01/12 03:27:16;;;;;;;1.73;1.10;;;;;;;14.60;61.86;99370.69;3120703;28;20602;-70
2022/01/12 03:28:53;;;;;;;0.80;0.80;;;;;;;14.60;61.97;99363.53;3118327;28;20517;-70
2022/01/12 03:30:25;;;;;;;1.70;1.27;;;;;;;14.59;61.85;99371.69;3118217;28;20061;-70
2022/01/12 03:31:57;;;;;;;1.42;1.10;;;;;;;14.59;61.98;99372.53;3118095;28;20053;-69
2022/01/12 03:33:49;;;;;;;1.98;1.25;;;;;;;14.57;61.71;99371.03;3115157;28;20111;-70
2022/01/12 03:35:36;;;;;;;1.67;1.05;;;;;;;14.57;61.86;99373.69;3119376;28;20512;-70
2022/01/12 03:37:28;;;;;;;1.58;1.38;;;;;;;14.55;61.91;99359.69;3120007;28;20049;-69
2022/01/12 03:39:03;;;;;;;1.63;1.42;;;;;;;14.55;61.98;99368.53;3116626;28;20084;-70
2022/01/12 03:40:35;;;;;;;3.20;1.38;;;;;;;14.53;61.85;99357.16;3118953;28;20056;-70
2022/01/12 03:42:09;;;;;;;1.63;1.30;;;;;;;14.51;61.77;99361.78;3118816;28;20049;-69
2022/01/12 03:43:40;;;;;;;2.70;1.33;;;;;;;14.51;61.88;99367.13;3120989;28;20718;-69
2022/01/12 03:45:12;;;;;;;4.57;1.58;;;;;;;14.49;62.07;99369.13;3113867;28;20045;-69
2022/01/12 03:46:45;;;;;;;1.13;0.95;;;;;;;14.48;62.00;99370.94;3120162;28;20057;-69
2022/01/12 03:48:16;;;;;;;1.40;1.08;;;;;;;14.46;62.02;99367.63;3122256;28;20052;-69
2022/01/12 03:49:48;;;;;;;1.23;0.90;;;;;;;14.46;61.89;99367.63;3118652;28;20048;-69
2022/01/12 03:51:20;;;;;;;2.13;1.38;;;;;;;14.44;61.76;99388.28;3118010;28;20049;-69
2022/01/12 03:52:52;;;;;;;2.45;1.42;;;;;;;14.45;61.94;99392.63;3115401;28;20057;-69
2022/01/12 03:54:24;;;;;;;1.52;0.93;;;;;;;14.45;61.86;99405.97;3119033;28;20134;-69
2022/01/12 03:55:56;;;;;;;1.92;1.63;;;;;;;14.46;61.98;99401.47;3124520;28;20043;-69
2022/01/12 03:57:29;;;;;;;2.08;1.20;;;;;;;14.45;61.96;99405.97;3118706;28;20064;-69
2022/01/12 03:59:03;;;;;;;1.40;1.00;;;;;;;14.42;61.99;99413.47;3120940;28;20056;-69
2022/01/12 04:00:34;;;;;;;1.38;1.25;;;;;;;14.43;61.93;99431.13;3119772;28;20205;-69
2022/01/12 04:02:06;;;;;;;1.43;1.23;;;;;;;14.42;62.02;99430.31;3120157;28;20125;-69
2022/01/12 04:03:40;;;;;;;3.15;1.40;;;;;;;14.42;61.79;99440.16;3116742;28;20346;-69
2022/01/12 04:05:26;;;;;;;1.40;0.95;;;;;;;14.43;61.88;99450.69;3120104;28;20105;-69
2022/01/12 04:08:46;;;;;;;1.63;1.27;;;;;;;14.43;61.85;99448.00;3117215;28;20049;-69
2022/01/12 04:10:19;;;;;;;1.98;1.20;;;;;;;14.44;62.00;99454.19;3074930;28;1164418;-69
2022/01/12 04:11:51;;;;;;;1.02;0.90;;;;;;;14.43;61.95;99464.03;3119705;28;20040;-69
2022/01/12 04:13:27;;;;;;;1.77;1.15;;;;;;;14.44;61.86;99454.19;3123241;28;20171;-69
2022/01/12 04:14:58;;;;;;;1.85;1.30;;;;;;;14.43;61.89;99456.00;3120710;28;20742;-69
2022/01/12 04:16:29;;;;;;;2.50;1.23;;;;;;;14.43;61.95;99472.03;3106363;28;20049;-69
2022/01/12 04:18:01;;;;;;;0.87;0.80;;;;;;;14.43;61.97;99461.34;3118992;28;20060;-69
2022/01/12 04:19:34;;;;;;;1.77;1.13;;;;;;;14.43;61.79;99452.47;3120748;28;20298;-69
2022/01/12 04:21:08;;;;;;;1.40;1.08;;;;;;;14.43;61.86;99445.34;3118838;28;20052;-69
2022/01/12 04:24:29;;;;;;;2.05;1.27;;;;;;;14.42;62.08;99448.97;3119368;28;20057;-69
2022/01/12 04:26:04;;;;;;;2.10;1.42;;;;;;;14.41;61.90;99441.97;3115175;28;20049;-69
2022/01/12 04:27:36;;;;;;;1.60;1.17;;;;;;;14.42;61.89;99435.63;3115440;28;20457;-69
2022/01/12 04:29:10;;;;;;;1.35;1.25;;;;;;;14.42;61.93;99432.13;3119197;28;20068;-69
2022/01/12 04:30:42;;;;;;;1.05;0.90;;;;;;;14.40;61.86;99426.97;3120624;28;20061;-69
2022/01/12 04:32:14;;;;;;;1.88;1.25;;;;;;;14.40;61.96;99408.28;3122478;28;20455;-69
2022/01/12 04:33:47;;;;;;;1.60;1.00;;;;;;;14.41;62.12;99406.44;3107988;28;20114;-69
2022/01/12 04:35:24;;;;;;;3.05;1.33;;;;;;;14.39;61.86;99401.25;3118897;28;20045;-69
2022/01/12 04:36:56;;;;;;;1.67;1.42;;;;;;;14.39;61.90;99390.59;3120618;28;20144;-69
2022/01/12 04:38:30;;;;;;;2.03;1.58;;;;;;;14.38;61.85;99380.91;3119710;28;20060;-69
2022/01/12 04:40:02;;;;;;;1.52;1.27;;;;;;;14.37;61.93;99373.88;3123752;28;20048;-69
2022/01/12 04:41:36;;;;;;;2.92;1.55;;;;;;;14.37;61.92;99379.22;3121663;28;20042;-69
2022/01/12 04:43:08;;;;;;;1.10;0.70;;;;;;;14.37;61.86;99379.22;3122329;28;20045;-70
2022/01/12 04:44:45;;;;;;;1.60;0.90;;;;;;;14.39;61.64;99381.75;3120822;28;20455;-69
2022/01/12 04:46:35;;;;;;;2.03;1.50;;;;;;;14.36;61.70;99385.56;3118519;28;20842;-69
2022/01/12 04:48:30;;;;;;;1.40;0.75;;;;;;;14.35;62.07;99381.22;3119893;28;20045;-69
2022/01/12 04:50:01;;;;;;;2.13;1.13;;;;;;;14.34;61.88;99387.53;3114918;28;20041;-69
2022/01/12 04:51:35;;;;;;;1.35;0.75;;;;;;;14.35;61.89;99383.03;3119077;28;20074;-69
2022/01/12 04:53:07;;;;;;;1.25;1.05;;;;;;;14.33;61.85;99372.53;3109881;28;20612;-69
2022/01/12 04:54:39;;;;;;;3.40;1.30;;;;;;;14.32;61.93;99362.88;3118291;28;20147;-70
2022/01/12 04:56:11;;;;;;;1.58;0.93;;;;;;;14.33;62.02;99374.38;3121910;28;20063;-70
2022/01/12 04:57:43;;;;;;;1.88;1.15;;;;;;;14.32;61.91;99381.56;3118137;28;20053;-70
2022/01/12 04:59:15;;;;;;;2.58;1.40;;;;;;;14.31;61.77;99374.53;3120497;28;20052;-70
2022/01/12 05:00:50;;;;;;;1.30;0.98;;;;;;;14.30;61.71;99375.53;3121573;28;20057;-70
2022/01/12 05:07:59;;;;;;;1.58;1.25;;;;;;;14.29;61.98;99371.16;3120269;28;20046;-70
2022/01/12 05:09:48;;;;;;;3.15;1.42;;;;;;;14.33;61.95;99372.53;3119231;28;20053;-70
2022/01/12 05:13:10;;;;;;;2.08;1.15;;;;;;;14.49;61.66;99361.13;3119486;28;20057;-69
2022/01/12 05:14:47;;;;;;;2.05;1.30;;;;;;;14.57;61.63;99357.66;3118154;28;20080;-69
2022/01/12 05:16:22;;;;;;;1.10;1.00;;;;;;;14.65;61.68;99355.03;3117093;28;20525;-69
2022/01/12 05:17:54;;;;;;;1.02;0.70;;;;;;;14.73;61.60;99349.72;3119694;28;20645;-69
2022/01/12 05:19:25;;;;;;;1.80;1.25;;;;;;;14.80;61.29;99350.78;3119734;28;20102;-69
2022/01/12 05:20:58;;;;;;;1.25;0.80;;;;;;;14.86;61.26;99342.13;3119744;28;20041;-69
2022/01/12 05:22:30;;;;;;;2.90;1.15;;;;;;;14.92;61.21;99354.81;3116140;28;20049;-69
2022/01/12 05:24:06;;;;;;;0.88;0.70;;;;;;;14.99;61.01;99352.34;3116023;28;20044;-69
2022/01/12 05:25:38;;;;;;;1.45;1.17;;;;;;;15.06;61.02;99344.50;3119197;28;20045;-69
2022/01/12 05:27:09;;;;;;;1.58;1.48;;;;;;;15.13;61.02;99354.38;3119439;28;20045;-69
2022/01/12 05:28:42;;;;;;;1.73;1.63;;;;;;;15.19;60.80;99364.41;3122151;28;20049;-69
2022/01/12 05:30:14;;;;;;;1.10;0.98;;;;;;;15.25;60.73;99365.59;3119921;28;20060;-69
2022/01/12 05:31:47;;;;;;;0.95;0.88;;;;;;;15.30;60.76;99387.31;3122750;28;20560;-69
2022/01/12 05:33:24;;;;;;;1.30;1.20;;;;;;;15.35;60.72;99403.72;3121105;28;20128;-69
2022/01/12 05:34:59;;;;;;;1.90;1.08;;;;;;;15.40;60.48;99398.69;3119639;28;20086;-69
2022/01/12 05:36:32;;;;;;;1.23;0.95;;;;;;;15.45;60.65;99418.75;3116519;28;20148;-69
2022/01/12 05:38:08;;;;;;;1.42;0.85;;;;;;;15.49;60.57;99430.78;3122796;28;20048;-69
2022/01/12 05:39:40;;;;;;;1.55;0.93;;;;;;;15.53;60.44;99435.66;3122387;28;20107;-69
2022/01/12 05:41:12;;;;;;;1.90;0.98;;;;;;;15.56;60.49;99455.88;3122849;28;20042;-69
2022/01/12 05:42:44;;;;;;;1.95;1.55;;;;;;;15.59;60.40;99461.72;3120262;28;20049;-69
2022/01/12 05:44:16;;;;;;;2.63;1.02;;;;;;;15.60;60.33;99460.75;3121560;28;20394;-69
2022/01/12 05:45:48;;;;;;;1.60;0.88;;;;;;;15.65;60.18;99465.56;3117820;28;20044;-69
2022/01/12 05:47:36;;;;;;;1.30;1.20;;;;;;;15.69;60.31;99463.47;3120368;28;20041;-69
2022/01/12 05:50:57;;;;;;;2.05;1.00;;;;;;;15.77;60.06;99474.19;3122635;28;20049;-69
2022/01/12 05:52:29;;;;;;;1.30;1.20;;;;;;;15.80;60.10;99476.53;3115899;28;20056;-69
2022/01/12 05:54:01;;;;;;;1.42;0.85;;;;;;;15.82;60.06;99488.75;3118650;28;20056;-69
2022/01/12 05:55:33;;;;;;;1.42;0.80;;;;;;;15.88;59.99;99489.06;3121663;28;20530;-69
2022/01/12 05:57:05;;;;;;;1.42;1.15;;;;;;;15.91;59.93;99494.06;3123049;28;20059;-69
2022/01/12 05:58:37;;;;;;;1.60;1.00;;;;;;;15.93;59.79;99489.41;3120823;28;20123;-69
2022/01/12 06:00:13;;;;;;;2.53;1.15;;;;;;;15.96;59.96;99481.03;3121071;28;20040;-69
2022/01/12 06:01:45;;;;;;;1.30;1.20;;;;;;;15.96;59.74;99481.88;3112430;28;20053;-69
2022/01/12 06:03:19;;;;;;;0.85;0.73;;;;;;;15.97;59.70;99478.22;3116379;28;20057;-69
2022/01/12 06:04:51;;;;;;;1.48;1.38;;;;;;;15.99;59.89;99476.22;3117303;28;20064;-69
2022/01/12 06:06:22;;;;;;;1.55;1.20;;;;;;;16.02;59.68;99480.41;3120818;28;20053;-70
2022/01/12 06:07:54;;;;;;;1.35;1.10;;;;;;;16.02;59.84;99489.25;3119702;28;20096;-69
2022/01/12 06:09:26;;;;;;;2.67;1.10;;;;;;;16.03;59.80;99488.25;3117283;28;20056;-69
2022/01/12 06:10:58;;;;;;;1.10;1.00;;;;;;;16.05;59.80;99483.56;3112466;28;20099;-69
2022/01/12 06:12:30;;;;;;;1.27;0.80;;;;;;;16.05;59.71;99491.59;3112915;28;20111;-69
2022/01/12 06:14:03;;;;;;;2.78;1.23;;;;;;;16.05;59.70;99494.28;3116893;28;20052;-69
2022/01/12 06:15:34;;;;;;;1.45;0.65;;;;;;;16.06;59.58;99501.28;3116050;28;20057;-70
2022/01/12 06:17:06;;;;;;;1.88;0.80;;;;;;;16.07;59.68;99508.34;3118124;28;20186;-70
2022/01/12 06:18:39;;;;;;;1.33;1.08;;;;;;;16.08;59.59;99518.03;3117871;28;20037;-69
2022/01/12 06:20:12;;;;;;;0.88;0.70;;;;;;;16.10;59.50;99520.53;3118379;28;20044;-70
2022/01/12 06:21:43;;;;;;;0.73;0.70;;;;;;;16.10;59.57;99525.88;3115637;28;20094;-70
2022/01/12 06:23:14;;;;;;;1.15;1.05;;;;;;;16.09;59.58;99529.56;3119213;28;20711;-70
2022/01/12 06:24:46;;;;;;;1.30;1.20;;;;;;;16.08;59.67;99520.69;3119454;28;23254;-70
2022/01/12 06:26:21;;;;;;;1.30;1.17;;;;;;;16.09;59.44;99526.88;3119838;28;20052;-70
2022/01/12 06:27:56;;;;;;;2.35;1.35;;;;;;;16.09;59.64;99532.25;3109343;28;20632;-70
2022/01/12 06:29:38;;;;;;;1.20;0.93;;;;;;;16.09;59.56;99540.25;3107608;28;20135;-70
2022/01/12 06:31:12;;;;;;;1.23;1.00;;;;;;;16.08;59.50;99544.78;3116189;28;20057;-70
2022/01/12 06:32:44;;;;;;;1.33;0.95;;;;;;;16.08;59.44;99555.50;3117745;28;20522;-69
2022/01/12 06:34:18;;;;;;;1.58;0.80;;;;;;;16.08;59.47;99554.66;3116227;28;20053;-70
2022/01/12 06:35:50;;;;;;;1.00;0.90;;;;;;;16.07;59.53;99561.84;3105704;28;20060;-70
2022/01/12 06:37:22;;;;;;;1.02;0.93;;;;;;;16.07;59.52;99559.19;3115997;28;20046;-69
2022/01/12 06:38:54;;;;;;;1.25;0.88;;;;;;;16.06;59.53;99557.50;3118436;28;20711;-70
2022/01/12 06:40:25;;;;;;;1.05;0.88;;;;;;;16.05;59.56;99560.34;3118690;28;20049;-69
2022/01/12 06:41:58;;;;;;;1.92;1.15;;;;;;;16.06;59.49;99562.00;3117537;28;20045;-70
2022/01/12 06:43:30;;;;;;;1.55;1.20;;;;;;;16.04;59.45;99564.84;3120853;28;20064;-70
2022/01/12 06:45:02;;;;;;;1.08;0.77;;;;;;;16.05;59.46;99571.06;3106475;28;20068;-70
2022/01/12 06:46:35;;;;;;;0.85;0.65;;;;;;;16.02;59.46;99568.69;3113811;28;20091;-70
2022/01/12 06:48:08;;;;;;;0.88;0.60;;;;;;;16.02;59.45;99560.69;3118305;28;20069;-70
2022/01/12 06:49:41;;;;;;;2.90;0.90;;;;;;;16.01;59.63;99564.34;3113346;28;20052;-70
2022/01/12 06:51:13;;;;;;;1.52;0.80;;;;;;;16.02;59.46;99566.03;3111745;28;20430;-69
2022/01/12 06:52:46;;;;;;;1.83;1.52;;;;;;;16.02;59.60;99566.03;3119092;28;22076;-69
2022/01/12 06:54:18;;;;;;;1.20;0.98;;;;;;;16.02;59.61;99560.69;3119634;28;20057;-69
2022/01/12 06:55:50;;;;;;;1.90;1.48;;;;;;;16.03;59.53;99559.66;3118516;28;20051;-69
2022/01/12 06:57:21;;;;;;;1.42;0.82;;;;;;;16.02;59.57;99561.50;3116760;28;20045;-69
2022/01/12 06:58:53;;;;;;;1.10;0.85;;;;;;;16.02;59.65;99561.50;3118277;28;20056;-69
2022/01/12 07:00:25;;;;;;;1.50;0.90;;;;;;;16.03;59.59;99567.69;3114706;28;20044;-68
2022/01/12 07:01:57;;;;;;;1.73;0.82;;;;;;;16.03;59.54;99573.03;3105702;28;20045;-69
2022/01/12 07:03:29;;;;;;;1.15;0.98;;;;;;;16.03;59.44;99567.69;3104462;28;20079;-69
2022/01/12 07:05:03;;;;;;;1.30;0.70;;;;;;;16.03;59.56;99565.00;3120278;28;20037;-71
2022/01/12 07:06:35;;;;;;;0.75;0.65;;;;;;;16.04;59.47;99566.69;3118470;28;20048;-70
2022/01/12 07:08:07;;;;;;;1.85;1.10;;;;;;;16.03;59.58;99559.66;3118393;28;20514;-70
2022/01/12 07:09:39;;;;;;;2.13;0.85;;;;;;;16.02;59.47;99564.19;3115966;28;20049;-71
2022/01/12 07:11:11;;;;;;;0.98;0.68;;;;;;;16.03;59.44;99551.63;3118515;28;20063;-72
2022/01/12 07:12:42;;;;;;;0.75;0.60;;;;;;;16.02;59.61;99558.81;3096590;28;21310;-70
2022/01/12 07:14:14;;;;;;;1.55;0.98;;;;;;;16.02;59.49;99553.47;3103186;28;20052;-70
2022/01/12 07:15:46;;;;;;;1.70;1.30;;;;;;;16.03;59.52;99567.69;3102486;28;20076;-70
2022/01/12 07:17:18;;;;;;;1.45;0.68;;;;;;;16.02;59.60;99566.03;3118313;28;20044;-70
2022/01/12 07:18:50;;;;;;;1.30;0.73;;;;;;;16.01;59.55;99564.34;3116161;28;20057;-70
2022/01/12 07:20:23;;;;;;;1.48;0.90;;;;;;;16.00;59.57;99582.22;3112816;28;20395;-70
2022/01/12 07:21:55;;;;;;;1.85;1.05;;;;;;;16.01;59.45;99583.06;3111445;28;20052;-70
2022/01/12 07:23:28;;;;;;;1.23;0.73;;;;;;;16.01;59.45;99585.75;3100872;28;20143;-70
2022/01/12 07:25:00;;;;;;;1.67;1.15;;;;;;;16.00;59.61;99598.28;3112832;28;20057;-70
2022/01/12 07:26:32;;;;;;;1.45;1.10;;;;;;;16.00;59.55;99610.84;3108519;28;20832;-70
2022/01/12 07:28:04;;;;;;;1.45;1.00;;;;;;;16.01;59.53;99610.66;3112215;28;20049;-70
2022/01/12 07:29:36;;;;;;;1.35;1.00;;;;;;;16.02;59.50;99616.88;3114339;28;20052;-70
2022/01/12 07:31:08;;;;;;;0.88;0.70;;;;;;;16.02;59.56;99620.38;3113997;28;20056;-69
2022/01/12 07:32:40;;;;;;;1.17;1.02;;;;;;;16.02;59.40;99632.94;3114844;28;20064;-70
2022/01/12 07:34:13;;;;;;;1.58;0.90;;;;;;;16.02;59.60;99631.06;3113591;28;20112;-70
2022/01/12 07:35:46;;;;;;;1.00;0.80;;;;;;;16.04;59.38;99638.94;3106561;28;20057;-70
2022/01/12 07:37:18;;;;;;;1.58;1.20;;;;;;;16.03;59.57;99638.09;3113723;28;20084;-70
2022/01/12 07:38:55;;;;;;;0.90;0.80;;;;;;;16.03;59.58;99656.81;3112927;28;20742;-70
2022/01/12 07:40:27;;;;;;;2.13;0.77;;;;;;;16.04;59.52;99657.66;3115048;28;20077;-70
2022/01/12 07:41:59;;;;;;;1.17;0.60;;;;;;;16.03;59.46;99658.66;3112106;28;20040;-69
2022/01/12 07:43:31;;;;;;;1.52;0.88;;;;;;;16.02;59.54;99662.34;3110024;28;20645;-70
2022/01/12 07:45:03;;;;;;;0.88;0.60;;;;;;;16.01;59.58;99666.84;3112500;28;20049;-70
2022/01/12 07:46:35;;;;;;;0.80;0.55;;;;;;;16.02;59.58;99667.72;3112587;28;20065;-70
2022/01/12 07:48:07;;;;;;;1.27;1.00;;;;;;;16.01;59.50;99676.72;3104620;28;20054;-70
2022/01/12 07:49:39;;;;;;;0.95;0.88;;;;;;;16.00;59.57;99681.25;3110968;28;20057;-70
2022/01/12 07:51:12;;;;;;;0.95;0.95;;;;;;;15.98;59.58;99677.03;3115682;28;20051;-70
2022/01/12 07:52:44;;;;;;;0.70;0.68;;;;;;;15.98;59.67;99672.53;3111312;28;20433;-70
2022/01/12 07:54:16;;;;;;;1.02;0.57;;;;;;;15.98;59.61;99672.53;3102241;28;20073;-70
2022/01/12 07:55:48;;;;;;;1.27;0.80;;;;;;;15.97;59.61;99675.38;3107937;28;20061;-71
2022/01/12 07:57:20;;;;;;;1.38;0.85;;;;;;;15.98;59.79;99685.06;3113099;28;20429;-70
2022/01/12 07:58:52;;;;;;;1.02;0.80;;;;;;;15.96;59.71;99682.53;3110074;28;20064;-71
2022/01/12 08:00:24;;;;;;;1.15;1.02;;;;;;;15.95;59.52;99685.41;3116332;28;20099;-71
2022/01/12 08:01:56;;;;;;;1.55;1.08;;;;;;;15.94;59.57;99687.25;3116612;28;20037;-70
2022/01/12 08:03:28;;;;;;;1.08;0.90;;;;;;;15.94;59.55;99686.41;3114616;28;20053;-70
2022/01/12 08:05:00;;;;;;;1.10;0.80;;;;;;;15.93;59.67;99700.75;3115238;28;20041;-70
2022/01/12 08:06:33;;;;;;;2.15;0.85;;;;;;;15.91;59.81;99708.09;3112377;28;20072;-70
2022/01/12 08:08:05;;;;;;;1.05;0.70;;;;;;;15.89;59.61;99708.28;3115495;28;20088;-71
2022/01/12 08:09:38;;;;;;;1.98;1.17;;;;;;;15.88;59.88;99709.28;3115974;28;20061;-71
2022/01/12 08:11:09;;;;;;;0.82;0.55;;;;;;;15.87;59.74;99712.94;3111087;28;20518;-71
2022/01/12 08:12:42;;;;;;;1.80;1.33;;;;;;;15.88;59.83;99721.81;3111744;28;20037;-70
2022/01/12 08:14:15;;;;;;;1.23;0.73;;;;;;;15.85;59.86;99731.84;3117904;28;20049;-70
2022/01/12 08:15:47;;;;;;;1.20;0.60;;;;;;;15.85;59.75;99725.63;3114660;28;20067;-70
2022/01/12 08:17:18;;;;;;;1.38;0.90;;;;;;;15.83;59.68;99722.31;3118577;28;20094;-67
2022/01/12 08:18:50;;;;;;;1.90;0.90;;;;;;;15.82;59.71;99713.44;3114886;28;20202;-68
2022/01/12 08:20:26;;;;;;;0.73;0.70;;;;;;;15.80;59.88;99711.91;3113107;28;20095;-67